createdAt,value
2018-07-19T00:02:43.982Z,19.29
2018-07-19T00:07:46.152Z,19.29
2018-07-19T00:12:48.317Z,19.36
2018-07-19T00:17:50.461Z,19.34
2018-07-19T00:22:52.602Z,19.29
2018-07-19T00:27:54.779Z,19.43
2018-07-19T00:32:56.970Z,19.27
2018-07-19T00:37:59.123Z,19.11
2018-07-19T00:43:01.311Z,19.09
2018-07-19T00:48:03.488Z,19.13
2018-07-19T00:53:05.654Z,19.00
2018-07-19T00:58:08.119Z,19.03
2018-07-19T01:03:10.310Z,18.92
2018-07-19T01:08:12.472Z,18.80
2018-07-19T01:13:14.667Z,18.79
2018-07-19T01:18:16.839Z,18.85
2018-07-19T01:23:18.958Z,18.69
2018-07-19T01:28:21.099Z,18.54
2018-07-19T01:33:23.263Z,18.53
2018-07-19T01:38:25.449Z,18.56
2018-07-19T01:43:27.648Z,18.64
2018-07-19T01:48:29.795Z,18.54
2018-07-19T01:53:31.962Z,18.59
2018-07-19T01:58:34.115Z,18.49
2018-07-19T02:03:36.261Z,18.47
2018-07-19T02:08:38.418Z,18.36
2018-07-19T02:13:40.616Z,18.43
2018-07-19T02:18:42.760Z,18.38
2018-07-19T02:23:44.906Z,18.52
2018-07-19T02:28:47.075Z,18.59
2018-07-19T02:33:49.634Z,18.47
2018-07-19T02:38:51.818Z,18.51
2018-07-19T02:43:54.004Z,18.42
2018-07-19T02:48:56.145Z,18.49
2018-07-19T02:53:58.334Z,18.17
2018-07-19T02:59:00.609Z,18.14
2018-07-19T03:04:02.923Z,18.14
2018-07-19T03:09:05.945Z,17.92
2018-07-19T03:14:08.162Z,18.01
2018-07-19T03:19:10.329Z,17.99
2018-07-19T03:24:12.513Z,17.83
2018-07-19T03:29:14.719Z,17.67
2018-07-19T03:34:16.895Z,17.84
2018-07-19T03:39:19.051Z,18.07
2018-07-19T03:44:21.309Z,18.21
2018-07-19T03:49:23.460Z,18.16
2018-07-19T03:54:25.631Z,18.28
2018-07-19T03:59:27.808Z,18.38
2018-07-19T04:04:30.001Z,18.38
2018-07-19T04:09:32.179Z,18.59
2018-07-19T04:14:34.601Z,18.61
2018-07-19T04:19:36.733Z,18.66
2018-07-19T04:24:38.934Z,18.65
2018-07-19T04:29:41.113Z,18.73
2018-07-19T04:34:43.303Z,19.03
2018-07-19T04:39:45.489Z,19.04
2018-07-19T04:44:47.681Z,19.09
2018-07-19T04:49:49.864Z,19.21
2018-07-19T04:54:51.997Z,19.08
2018-07-19T04:59:54.171Z,19.29
2018-07-19T05:04:56.358Z,19.22
2018-07-19T05:09:58.530Z,19.22
2018-07-19T05:15:00.753Z,19.45
2018-07-19T05:20:02.989Z,19.37
2018-07-19T05:25:05.246Z,19.33
2018-07-19T05:30:07.460Z,19.26
2018-07-19T05:35:10.427Z,19.25
2018-07-19T05:40:12.575Z,19.28
2018-07-19T05:45:14.760Z,19.33
2018-07-19T05:50:16.912Z,19.54
2018-07-19T05:55:19.092Z,19.92
2018-07-19T06:00:21.272Z,19.85
2018-07-19T06:05:23.539Z,20.10
2018-07-19T06:10:25.845Z,20.04
2018-07-19T06:15:28.055Z,20.21
2018-07-19T06:20:30.423Z,20.42
2018-07-19T06:25:32.602Z,20.30
2018-07-19T06:30:34.779Z,20.39
2018-07-19T06:35:36.989Z,20.27
2018-07-19T06:40:39.172Z,20.19
2018-07-19T06:45:41.743Z,20.35
2018-07-19T06:50:43.964Z,20.37
2018-07-19T06:55:46.350Z,20.54
2018-07-19T07:00:48.608Z,20.89
2018-07-19T07:05:50.909Z,20.96
2018-07-19T07:10:53.084Z,20.99
2018-07-19T07:15:55.429Z,21.20
2018-07-19T07:20:57.767Z,21.29
2018-07-19T07:25:59.960Z,21.45
2018-07-19T07:31:02.142Z,21.35
2018-07-19T07:36:04.576Z,21.47
2018-07-19T07:41:06.815Z,21.66
2018-07-19T07:46:09.007Z,21.74
2018-07-19T07:51:11.192Z,21.73
2018-07-19T07:56:13.366Z,22.03
2018-07-19T08:01:16.461Z,21.87
2018-07-19T08:06:18.664Z,21.99
2018-07-19T08:11:20.835Z,22.22
2018-07-19T08:16:23.089Z,22.25
2018-07-19T08:21:25.284Z,22.32
2018-07-19T08:26:27.495Z,22.43
2018-07-19T08:31:29.695Z,22.38
2018-07-19T08:36:31.955Z,22.38
2018-07-19T08:41:34.191Z,22.51
2018-07-19T08:46:36.435Z,22.55
2018-07-19T08:51:38.672Z,22.50
2018-07-19T08:56:40.929Z,22.67
2018-07-19T09:01:43.138Z,22.95
2018-07-19T09:06:45.350Z,23.18
2018-07-19T09:11:47.553Z,23.00
2018-07-19T09:16:49.820Z,23.02
2018-07-19T09:21:52.032Z,22.81
2018-07-19T09:26:54.225Z,22.90
2018-07-19T09:31:56.427Z,22.90
2018-07-19T09:36:58.701Z,23.28
2018-07-19T09:42:00.913Z,23.63
2018-07-19T09:47:03.188Z,23.68
2018-07-19T09:52:05.386Z,23.62
2018-07-19T09:57:07.568Z,23.62
2018-07-19T10:02:09.818Z,23.47
2018-07-19T10:07:11.974Z,23.53
2018-07-19T10:12:14.163Z,23.10
2018-07-19T10:17:16.632Z,22.76
2018-07-19T10:22:18.804Z,22.77
2018-07-19T10:27:20.963Z,22.78
2018-07-19T10:32:23.407Z,23.23
2018-07-19T10:37:25.466Z,23.69
2018-07-19T10:42:28.059Z,23.65
2018-07-19T10:47:30.232Z,23.54
2018-07-19T10:52:32.699Z,23.90
2018-07-19T10:57:34.912Z,24.13
2018-07-19T11:02:37.115Z,24.55
2018-07-19T11:07:39.336Z,25.17
2018-07-19T11:12:41.502Z,24.35
2018-07-19T11:17:43.731Z,23.67
2018-07-19T11:22:45.891Z,23.63
2018-07-19T11:27:48.073Z,24.75
2018-07-19T11:32:50.211Z,24.61
2018-07-19T11:37:52.407Z,23.91
2018-07-19T11:42:54.587Z,23.64
2018-07-19T11:47:56.832Z,24.29
2018-07-19T11:52:58.980Z,23.89
2018-07-19T11:58:01.134Z,23.89
2018-07-19T12:03:03.331Z,24.90
2018-07-19T12:08:05.503Z,25.90
2018-07-19T12:13:08.083Z,25.52
2018-07-19T12:18:10.290Z,25.98
2018-07-19T12:23:13.201Z,25.40
2018-07-19T12:28:15.347Z,25.68
2018-07-19T12:33:17.563Z,26.82
2018-07-19T12:38:20.173Z,27.05
2018-07-19T12:43:22.402Z,27.23
2018-07-19T12:48:24.553Z,27.41
2018-07-19T12:53:26.776Z,27.83
2018-07-19T12:58:28.944Z,28.25
2018-07-19T13:03:31.128Z,28.51
2018-07-19T13:08:33.326Z,28.42
2018-07-19T13:13:36.391Z,28.82
2018-07-19T13:18:38.642Z,28.53
2018-07-19T13:23:41.255Z,28.03
2018-07-19T13:28:43.478Z,27.16
2018-07-19T13:33:45.659Z,27.10
2018-07-19T13:38:47.870Z,26.41
2018-07-19T13:43:50.076Z,26.66
2018-07-19T13:48:52.232Z,27.46
2018-07-19T13:54:17.746Z,28.26
2018-07-19T13:59:19.966Z,28.92
2018-07-19T14:04:22.164Z,29.02
2018-07-19T14:09:24.365Z,29.27
2018-07-19T14:14:26.539Z,29.42
2018-07-19T14:19:28.742Z,29.35
2018-07-19T14:24:30.916Z,29.63
2018-07-19T14:29:33.089Z,29.31
2018-07-19T14:34:35.269Z,29.08
2018-07-19T14:39:37.462Z,29.67
2018-07-19T14:44:39.631Z,29.77
2018-07-19T14:49:41.846Z,29.95
2018-07-19T14:54:44.019Z,30.06
2018-07-19T14:59:46.218Z,30.07
2018-07-19T15:04:48.406Z,29.95
2018-07-19T15:09:50.624Z,30.34
2018-07-19T15:14:53.007Z,29.64
2018-07-19T15:19:55.278Z,29.21
2018-07-19T15:24:57.420Z,29.94
2018-07-19T15:29:59.602Z,30.11
2018-07-19T15:35:01.758Z,30.29
2018-07-19T15:40:05.048Z,30.60
2018-07-19T15:45:07.517Z,29.13
2018-07-19T15:50:09.715Z,28.92
2018-07-19T15:55:11.954Z,29.57
2018-07-19T16:00:14.159Z,29.70
2018-07-19T16:05:16.443Z,29.88
2018-07-19T16:10:18.708Z,29.73
2018-07-19T16:15:20.875Z,29.37
2018-07-19T16:20:23.084Z,29.78
2018-07-19T16:25:25.269Z,29.71
2018-07-19T16:30:27.443Z,29.34
2018-07-19T16:35:29.731Z,28.84
2018-07-19T16:40:31.888Z,28.62
2018-07-19T16:45:34.080Z,28.78
2018-07-19T16:50:36.291Z,28.44
2018-07-19T16:55:38.500Z,28.38
2018-07-19T17:00:40.670Z,28.34
2018-07-19T17:05:42.904Z,28.30
2018-07-19T17:10:45.096Z,28.21
2018-07-19T17:15:47.351Z,28.31
2018-07-19T17:20:49.597Z,28.21
2018-07-19T17:25:51.783Z,27.86
2018-07-19T17:30:53.974Z,27.75
2018-07-19T17:35:56.171Z,27.70
2018-07-19T17:40:58.410Z,27.01
2018-07-19T17:46:00.596Z,26.99
2018-07-19T17:51:02.761Z,26.83
2018-07-19T17:56:05.001Z,27.22
2018-07-19T18:01:07.327Z,26.86
2018-07-19T18:06:09.461Z,26.79
2018-07-19T18:11:11.665Z,26.21
2018-07-19T18:16:13.881Z,26.05
2018-07-19T18:21:16.096Z,25.49
2018-07-19T18:26:18.332Z,24.87
2018-07-19T18:31:20.576Z,24.59
2018-07-19T18:36:22.980Z,24.37
2018-07-19T18:41:25.181Z,24.16
2018-07-19T18:46:27.409Z,23.82
2018-07-19T18:51:29.689Z,23.76
2018-07-19T18:56:31.994Z,23.56
2018-07-19T19:01:34.209Z,23.39
2018-07-19T19:06:36.480Z,23.34
2018-07-19T19:11:38.657Z,23.32
2018-07-19T19:16:40.839Z,23.36
2018-07-19T19:21:43.315Z,23.24
2018-07-19T19:26:45.507Z,23.05
2018-07-19T19:31:47.695Z,22.95
2018-07-19T19:36:49.917Z,23.05
2018-07-19T19:41:52.118Z,22.98
2018-07-19T19:46:54.334Z,22.94
2018-07-19T19:51:56.549Z,22.89
2018-07-19T19:56:59.206Z,22.62
2018-07-19T20:02:01.456Z,22.56
2018-07-19T20:07:03.708Z,22.48
2018-07-19T20:12:05.911Z,22.55
2018-07-19T20:17:08.116Z,22.72
2018-07-19T20:22:10.429Z,22.95
2018-07-19T20:27:12.650Z,23.12
2018-07-19T20:32:14.986Z,22.92
2018-07-19T20:37:17.219Z,22.87
2018-07-19T20:42:19.358Z,22.89
2018-07-19T20:47:21.612Z,22.24
2018-07-19T20:52:23.848Z,21.86
2018-07-19T20:57:26.051Z,21.57
2018-07-19T21:02:28.232Z,21.46
2018-07-19T21:07:30.461Z,21.31
2018-07-19T21:12:32.658Z,21.22
2018-07-19T21:17:34.808Z,21.27
2018-07-19T21:22:36.984Z,21.15
2018-07-19T21:27:39.183Z,21.20
2018-07-19T21:32:41.359Z,21.10
2018-07-19T21:37:43.532Z,20.90
2018-07-19T21:42:45.670Z,20.63
2018-07-19T21:47:47.863Z,20.53
2018-07-19T21:52:51.405Z,20.55
2018-07-19T21:57:53.619Z,20.55
2018-07-19T22:02:56.244Z,20.53
2018-07-19T22:07:58.425Z,20.52
2018-07-19T22:13:00.604Z,20.37
2018-07-19T22:18:03.322Z,20.36
2018-07-19T22:23:05.572Z,21.36
2018-07-19T22:28:07.767Z,21.55
2018-07-19T22:33:10.059Z,21.74
2018-07-19T22:38:12.200Z,21.67
2018-07-19T22:43:14.355Z,21.78
2018-07-19T22:48:16.540Z,21.72
2018-07-19T22:53:18.721Z,21.82
2018-07-19T22:58:20.857Z,21.81
2018-07-19T23:03:23.047Z,21.80
2018-07-19T23:08:25.206Z,21.54
2018-07-19T23:13:27.371Z,21.44
2018-07-19T23:18:29.505Z,21.47
2018-07-19T23:23:31.709Z,21.46
2018-07-19T23:28:33.967Z,21.44
2018-07-19T23:33:36.163Z,21.42
2018-07-19T23:38:42.054Z,21.35
2018-07-19T23:43:47.097Z,21.31
2018-07-19T23:48:49.260Z,21.31
2018-07-19T23:53:51.606Z,21.37
2018-07-19T23:58:53.755Z,21.24
